Time;durP1;ratioP1;P1;durP2;ratioP2;P2;SDS_P1;SDS_P2;PMS_P1;PMS_P2;Temp;Humidity;BMP_temperature;BMP_pressure;BME280_temperature;BME280_humidity;BME280_pressure;Samples;Min_cycle;Max_cycle;Signal;HPM_P1;HPM_P2
2021/04/01 00:00:57;;;;;;;9.70;2.17;;;12.70;51.30;;;;;;4958074;28;20027;-82
2021/04/01 00:03:23;;;;;;;17.13;2.83;;;12.50;51.40;;;;;;4971256;28;20082;-82
2021/04/01 00:05:48;;;;;;;8.23;2.13;;;12.50;51.70;;;;;;4971943;28;20070;-81
2021/04/01 00:08:14;;;;;;;6.63;2.20;;;12.50;51.70;;;;;;4970593;28;20054;-82
2021/04/01 00:10:43;;;;;;;5.13;2.10;;;12.50;52.30;;;;;;4971354;28;20491;-83
2021/04/01 00:13:09;;;;;;;6.67;2.33;;;12.40;51.80;;;;;;4959813;28;20031;-82
2021/04/01 00:15:37;;;;;;;5.27;2.27;;;12.40;51.80;;;;;;4969079;28;20058;-82
2021/04/01 00:18:04;;;;;;;18.73;2.30;;;12.30;52.00;;;;;;4967657;28;20113;-82
2021/04/01 00:20:30;;;;;;;6.83;2.70;;;12.30;52.20;;;;;;4970152;28;20108;-81
2021/04/01 00:22:55;;;;;;;6.63;2.23;;;12.30;52.30;;;;;;4983415;28;20479;-82
2021/04/01 00:25:23;;;;;;;8.27;2.33;;;12.30;52.10;;;;;;4970056;28;20125;-82
2021/04/01 00:27:48;;;;;;;11.57;2.80;;;12.30;52.10;;;;;;4970427;28;20498;-82
2021/04/01 00:30:15;;;;;;;11.17;1.70;;;12.20;52.10;;;;;;4983123;28;20031;-82
2021/04/01 00:32:42;;;;;;;7.77;2.50;;;12.20;52.30;;;;;;4969873;28;20031;-82
2021/04/01 00:35:08;;;;;;;6.83;2.00;;;12.20;52.40;;;;;;4969418;28;20093;-83
2021/04/01 00:37:34;;;;;;;6.87;2.40;;;12.20;52.40;;;;;;4952784;28;20035;-82
2021/04/01 00:40:00;;;;;;;9.27;2.20;;;12.30;52.20;;;;;;4961615;28;20027;-83
2021/04/01 00:42:26;;;;;;;6.13;2.10;;;12.30;52.20;;;;;;4964345;28;20081;-83
2021/04/01 00:44:57;;;;;;;5.17;2.10;;;12.40;52.00;;;;;;4968899;28;20066;-83
2021/04/01 00:47:23;;;;;;;12.27;2.90;;;12.40;51.80;;;;;;4987632;28;20037;-83
2021/04/01 00:49:49;;;;;;;6.07;1.90;;;12.30;51.70;;;;;;4967641;28;20479;-81
2021/04/01 00:52:24;;;;;;;5.27;2.13;;;12.30;51.80;;;;;;4971152;28;20082;-82
2021/04/01 00:54:49;;;;;;;6.33;1.73;;;12.30;51.90;;;;;;4969952;28;20058;-82
2021/04/01 00:57:15;;;;;;;7.20;2.07;;;12.30;51.90;;;;;;4971793;28;20054;-82
2021/04/01 00:59:41;;;;;;;9.47;2.53;;;12.20;51.90;;;;;;4971386;28;20032;-82
2021/04/01 01:02:06;;;;;;;6.03;2.00;;;12.10;52.20;;;;;;4964573;28;20588;-82
2021/04/01 01:04:32;;;;;;;8.43;2.17;;;12.00;52.50;;;;;;4963136;28;20088;-82
2021/04/01 01:07:00;;;;;;;7.17;2.50;;;12.00;52.50;;;;;;4976493;28;20030;-82
2021/04/01 01:09:26;;;;;;;5.87;2.00;;;12.00;52.60;;;;;;4974662;28;20038;-82
2021/04/01 01:11:52;;;;;;;5.30;1.70;;;12.00;52.50;;;;;;4972848;28;20372;-82
2021/04/01 01:14:17;;;;;;;9.17;2.17;;;12.00;52.40;;;;;;4974825;28;20031;-82
2021/04/01 01:16:43;;;;;;;5.77;2.83;;;12.10;52.50;;;;;;4970377;28;20059;-83
2021/04/01 01:19:11;;;;;;;8.90;2.40;;;12.00;52.50;;;;;;4963659;28;20037;-82
2021/04/01 01:21:37;;;;;;;11.23;2.60;;;12.00;52.40;;;;;;4964554;28;20467;-82
2021/04/01 01:24:03;;;;;;;8.93;2.23;;;11.90;52.50;;;;;;4980930;28;20043;-82
2021/04/01 01:26:29;;;;;;;9.17;1.97;;;11.90;52.50;;;;;;4973567;28;20030;-82
2021/04/01 01:28:55;;;;;;;6.67;1.97;;;11.80;52.80;;;;;;4967318;28;20042;-82
2021/04/01 01:31:22;;;;;;;6.00;2.20;;;11.70;52.90;;;;;;4971030;28;20038;-81
2021/04/01 01:33:48;;;;;;;8.80;2.20;;;11.70;53.20;;;;;;4973500;28;20030;-82
2021/04/01 01:36:15;;;;;;;4.47;1.63;;;11.70;53.10;;;;;;4975558;28;20027;-82
2021/04/01 01:38:40;;;;;;;5.40;2.43;;;11.80;53.80;;;;;;4972788;28;20027;-82
2021/04/01 01:41:07;;;;;;;6.73;2.30;;;11.80;53.10;;;;;;4974103;28;20058;-82
2021/04/01 01:43:36;;;;;;;7.87;2.90;;;11.70;53.10;;;;;;4973839;28;20126;-82
2021/04/01 01:46:02;;;;;;;18.23;5.30;;;11.70;53.10;;;;;;4988821;28;20043;-83
2021/04/01 01:48:27;;;;;;;9.70;3.10;;;11.70;53.20;;;;;;4975773;28;20062;-82
2021/04/01 01:50:53;;;;;;;6.87;2.43;;;11.60;53.30;;;;;;4974444;28;20035;-83
2021/04/01 01:53:19;;;;;;;5.60;2.10;;;11.60;53.30;;;;;;4971659;28;20042;-82
2021/04/01 01:55:46;;;;;;;7.77;2.43;;;11.60;53.40;;;;;;4965351;28;20027;-82
2021/04/01 01:58:12;;;;;;;7.60;2.50;;;11.70;53.50;;;;;;4967319;28;20082;-83
2021/04/01 02:00:46;;;;;;;11.57;3.17;;;11.70;53.30;;;;;;4969243;28;20034;-82
2021/04/01 02:03:12;;;;;;;13.67;3.00;;;11.60;53.30;;;;;;4987941;28;20402;-82
2021/04/01 02:05:39;;;;;;;8.77;2.63;;;11.60;53.30;;;;;;4966244;28;20031;-82
2021/04/01 02:08:07;;;;;;;12.20;2.30;;;11.50;53.40;;;;;;4972321;28;20069;-83
2021/04/01 02:10:40;;;;;;;7.03;2.57;;;11.40;53.50;;;;;;4972064;28;20478;-83
2021/04/01 02:13:06;;;;;;;14.70;3.90;;;11.50;53.60;;;;;;4968513;28;20038;-82
2021/04/01 02:15:40;;;;;;;10.07;2.67;;;11.40;53.50;;;;;;4970922;28;20035;-83
2021/04/01 02:18:12;;;;;;;9.60;2.10;;;11.50;53.60;;;;;;4973378;28;20022;-83
2021/04/01 02:20:48;;;;;;;13.32;2.83;;;11.40;53.70;;;;;;4967223;28;20030;-83
2021/04/01 02:23:21;;;;;;;9.93;2.30;;;11.50;53.60;;;;;;4964667;28;20031;-82
2021/04/01 02:25:49;;;;;;;6.83;2.60;;;11.40;53.70;;;;;;4960354;28;20034;-82
2021/04/01 02:28:16;;;;;;;9.73;2.53;;;11.40;53.50;;;;;;4967239;28;20490;-83
2021/04/01 02:30:44;;;;;;;7.17;2.97;;;11.40;53.60;;;;;;4972742;28;20027;-83
2021/04/01 02:33:11;;;;;;;8.40;2.30;;;11.40;53.70;;;;;;4973181;28;20113;-82
2021/04/01 02:35:37;;;;;;;6.03;2.03;;;11.40;53.70;;;;;;4972783;28;20034;-82
2021/04/01 02:38:04;;;;;;;7.90;2.40;;;11.40;53.80;;;;;;4965696;28;20050;-83
2021/04/01 02:40:31;;;;;;;7.87;2.70;;;11.40;53.50;;;;;;4971796;28;20033;-82
2021/04/01 02:42:57;;;;;;;13.00;3.57;;;11.40;53.50;;;;;;4975812;28;20073;-82
2021/04/01 02:45:23;;;;;;;9.07;3.33;;;11.40;53.20;;;;;;4970013;28;20387;-82
2021/04/01 02:47:49;;;;;;;6.17;2.33;;;11.40;53.10;;;;;;4957725;28;20122;-82
2021/04/01 02:50:16;;;;;;;6.17;2.30;;;11.40;52.90;;;;;;4964705;28;20569;-81
2021/04/01 02:52:42;;;;;;;10.20;2.10;;;11.30;53.10;;;;;;4957176;28;20034;-81
2021/04/01 02:55:09;;;;;;;7.57;2.10;;;11.30;53.50;;;;;;4970241;28;20097;-82
2021/04/01 02:57:35;;;;;;;8.17;2.50;;;11.30;53.80;;;;;;4972790;28;20447;-82
2021/04/01 03:00:06;;;;;;;7.27;2.03;;;11.20;53.70;;;;;;4964747;28;20126;-82
2021/04/01 03:02:33;;;;;;;10.50;3.07;;;11.10;53.90;;;;;;4961012;28;20395;-81
2021/04/01 03:05:03;;;;;;;6.10;3.27;;;11.20;54.00;;;;;;4986645;28;20031;-82
2021/04/01 03:07:29;;;;;;;10.07;3.30;;;11.10;54.00;;;;;;4965635;28;20117;-82
2021/04/01 03:09:55;;;;;;;8.00;2.63;;;11.10;54.10;;;;;;4968140;28;20125;-81
2021/04/01 03:12:20;;;;;;;8.90;3.03;;;11.10;53.90;;;;;;4970415;28;20035;-81
2021/04/01 03:14:46;;;;;;;12.03;2.57;;;11.00;54.10;;;;;;4972035;28;20344;-82
2021/04/01 03:17:12;;;;;;;8.90;2.20;;;11.00;54.30;;;;;;4972051;28;20027;-82
2021/04/01 03:19:37;;;;;;;7.00;1.87;;;10.90;54.30;;;;;;4965724;28;20023;-82
2021/04/01 03:22:03;;;;;;;7.40;1.90;;;10.90;54.40;;;;;;4972733;28;20023;-81
2021/04/01 03:24:29;;;;;;;10.33;3.20;;;10.90;54.50;;;;;;4967399;28;20030;-81
2021/04/01 03:26:55;;;;;;;7.93;2.50;;;10.90;54.50;;;;;;4970484;28;20112;-80
2021/04/01 03:29:20;;;;;;;13.23;3.37;;;10.80;55.30;;;;;;4967581;28;20023;-81
2021/04/01 03:31:46;;;;;;;12.10;3.10;;;10.80;54.70;;;;;;4970758;28;20471;-82
2021/04/01 03:34:12;;;;;;;8.27;3.07;;;10.90;54.70;;;;;;4969580;28;20031;-83
2021/04/01 03:36:38;;;;;;;10.60;3.30;;;11.10;54.50;;;;;;4965895;28;20034;-83
2021/04/01 03:39:05;;;;;;;6.53;2.50;;;11.10;54.20;;;;;;4969676;28;20027;-83
2021/04/01 03:41:30;;;;;;;5.87;2.73;;;11.00;54.10;;;;;;4965277;28;20098;-83
2021/04/01 03:43:56;;;;;;;10.90;2.97;;;10.90;54.30;;;;;;4969814;28;20110;-83
2021/04/01 03:46:22;;;;;;;6.53;2.57;;;10.80;54.60;;;;;;4971032;28;20027;-83
2021/04/01 03:48:48;;;;;;;5.43;2.33;;;10.80;54.60;;;;;;4971522;28;20034;-82
2021/04/01 03:51:13;;;;;;;12.07;2.60;;;10.60;54.70;;;;;;4987831;28;20062;-82
2021/04/01 03:53:39;;;;;;;11.27;2.97;;;10.60;54.90;;;;;;4973327;28;20027;-82
2021/04/01 03:56:05;;;;;;;10.53;2.40;;;10.60;55.00;;;;;;4971640;28;20024;-83
2021/04/01 04:15:02;;;;;;;8.23;2.40;;;10.20;55.70;;;;;;4965268;28;20033;-83
2021/04/01 04:16:46;;;;;;;17.07;3.23;;;10.20;56.00;;;;;;4967953;28;20069;-82
2021/04/01 04:19:12;;;;;;;8.03;3.40;;;10.10;56.00;;;;;;4972250;28;20051;-82
2021/04/01 04:21:39;;;;;;;10.40;3.67;;;10.10;56.00;;;;;;4987521;28;20026;-82
2021/04/01 04:24:07;;;;;;;10.73;3.90;;;10.10;56.20;;;;;;4973174;28;20057;-82
2021/04/01 04:26:33;;;;;;;6.73;3.30;;;10.00;56.30;;;;;;4985603;28;20081;-83
2021/04/01 04:28:58;;;;;;;10.63;2.87;;;10.00;56.40;;;;;;4974656;28;20487;-82
2021/04/01 04:31:24;;;;;;;11.57;2.80;;;9.90;56.60;;;;;;4975665;28;20086;-82
2021/04/01 04:33:50;;;;;;;19.97;5.17;;;9.90;56.60;;;;;;4967035;28;20462;-83
2021/04/01 04:36:15;;;;;;;9.47;2.87;;;9.80;56.70;;;;;;4970482;28;20033;-82
2021/04/01 04:38:41;;;;;;;5.50;2.60;;;9.90;56.70;;;;;;4975155;28;20031;-83
2021/04/01 04:41:07;;;;;;;6.70;2.90;;;9.90;56.70;;;;;;4975237;28;20549;-82
2021/04/01 04:43:35;;;;;;;11.13;3.70;;;9.90;56.60;;;;;;4991504;28;20027;-83
2021/04/01 04:46:00;;;;;;;9.37;3.47;;;9.80;56.90;;;;;;4974355;28;20093;-83
2021/04/01 04:48:28;;;;;;;14.13;3.87;;;9.80;56.90;;;;;;4968470;28;20027;-83
2021/04/01 04:50:55;;;;;;;9.90;3.20;;;9.90;56.80;;;;;;4968731;28;20485;-83
2021/04/01 04:53:21;;;;;;;5.40;3.20;;;10.00;56.90;;;;;;4975367;28;20085;-83
2021/04/01 05:04:36;;;;;;;9.20;3.43;;;10.10;56.60;;;;;;4967477;28;20350;-83
2021/04/01 05:09:18;;;;;;;12.53;4.63;;;10.30;56.40;;;;;;4967720;28;20075;-81
2021/04/01 05:11:44;;;;;;;12.20;3.97;;;10.30;56.40;;;;;;4959549;28;20066;-81
2021/04/01 05:14:10;;;;;;;10.93;3.30;;;10.20;56.40;;;;;;4964717;28;20054;-81
2021/04/01 05:16:35;;;;;;;10.87;3.67;;;10.10;56.40;;;;;;4974324;28;20031;-81
2021/04/01 05:19:04;;;;;;;9.70;2.83;;;10.10;56.60;;;;;;4982153;28;20561;-81
2021/04/01 05:24:21;;;;;;;15.23;3.20;;;10.10;56.40;;;;;;4965900;28;20522;-82
2021/04/01 05:29:20;;;;;;;17.40;3.27;;;10.30;56.30;;;;;;4964049;28;20038;-82
2021/04/01 05:31:48;;;;;;;11.37;2.93;;;10.40;56.10;;;;;;4970654;28;20025;-82
2021/04/01 05:34:14;;;;;;;9.07;3.00;;;10.60;56.10;;;;;;4968792;28;20440;-83
2021/04/01 05:36:42;;;;;;;13.03;3.20;;;10.70;56.10;;;;;;4955834;28;20023;-85
2021/04/01 05:39:16;;;;;;;13.10;3.63;;;10.80;55.60;;;;;;4968238;28;20468;-83
2021/04/01 05:41:44;;;;;;;12.97;3.10;;;10.70;55.40;;;;;;4972252;28;20122;-82
2021/04/01 05:47:07;;;;;;;8.85;3.08;;;10.40;55.80;;;;;;4976239;28;20073;-83
2021/04/01 06:03:41;;;;;;;11.80;2.97;;;10.10;57.30;;;;;;4975231;28;20264;-81
2021/04/01 06:06:10;;;;;;;11.33;3.17;;;10.30;56.90;;;;;;4965088;28;20114;-82
2021/04/01 06:08:47;;;;;;;10.73;4.50;;;10.60;56.30;;;;;;4973790;28;20051;-83
2021/04/01 06:11:13;;;;;;;9.43;3.13;;;10.60;56.00;;;;;;4976354;28;20031;-82
2021/04/01 06:14:26;;;;;;;8.47;3.97;;;10.70;55.90;;;;;;4973439;28;20027;-82
2021/04/01 06:16:28;;;;;;;7.67;3.57;;;10.80;55.80;;;;;;4969816;28;20038;-83
2021/04/01 06:18:55;;;;;;;9.83;2.70;;;10.90;55.50;;;;;;4970296;28;20039;-82
2021/04/01 06:21:26;;;;;;;8.53;3.40;;;11.10;55.30;;;;;;4964270;28;20031;-82
2021/04/01 06:24:05;;;;;;;13.07;3.40;;;11.10;54.70;;;;;;4974143;28;21937;-81
2021/04/01 06:26:33;;;;;;;9.67;3.60;;;11.20;54.80;;;;;;4961335;28;20043;-81
2021/04/01 06:29:02;;;;;;;13.43;3.37;;;11.30;54.30;;;;;;4980636;28;20037;-81
2021/04/01 06:31:39;;;;;;;9.47;3.43;;;11.40;53.70;;;;;;4980887;28;20483;-81
2021/04/01 06:34:06;;;;;;;12.30;3.33;;;11.40;53.70;;;;;;4970640;28;20066;-83
2021/04/01 06:36:35;;;;;;;15.53;3.77;;;11.40;53.50;;;;;;4968251;28;20054;-81
2021/04/01 06:39:01;;;;;;;8.47;2.90;;;11.50;53.40;;;;;;4973448;28;20027;-81
2021/04/01 06:41:29;;;;;;;10.63;3.10;;;11.40;53.10;;;;;;4973216;28;20431;-81
2021/04/01 06:44:13;;;;;;;11.20;3.67;;;11.50;53.40;;;;;;4966507;28;20406;-82
2021/04/01 06:46:47;;;;;;;11.23;3.13;;;11.60;53.50;;;;;;4970937;28;20038;-82
2021/04/01 06:52:08;;;;;;;12.07;3.20;;;11.70;53.10;;;;;;4965172;28;20085;-82
2021/04/01 06:54:49;;;;;;;8.40;3.10;;;11.60;53.30;;;;;;4963256;28;20043;-81
2021/04/01 06:57:47;;;;;;;11.63;3.03;;;11.60;53.50;;;;;;4973008;28;20043;-82
2021/04/01 07:03:16;;;;;;;8.17;3.13;;;11.90;52.80;;;;;;4966793;28;20602;-82
2021/04/01 07:08:23;;;;;;;14.27;3.07;;;12.00;52.10;;;;;;4974217;28;20130;-82
2021/04/01 07:13:24;;;;;;;12.27;3.43;;;12.20;51.50;;;;;;4966800;28;20035;-82
2021/04/01 07:15:55;;;;;;;11.30;3.47;;;12.20;51.50;;;;;;4981147;28;20114;-81
2021/04/01 07:48:05;;;;;;;13.53;3.20;;;13.30;48.60;;;;;;4966769;28;20057;-82
2021/04/01 07:50:43;;;;;;;12.17;3.30;;;13.40;47.60;;;;;;4954957;28;20181;-82
2021/04/01 07:53:13;;;;;;;8.60;2.40;;;13.30;47.00;;;;;;4985112;28;20034;-82
2021/04/01 08:01:44;;;;;;;12.67;3.03;;;13.30;46.40;;;;;;4963413;28;20086;-82
2021/04/01 08:04:10;;;;;;;12.93;2.63;;;13.40;46.40;;;;;;4954306;28;20387;-83
2021/04/01 08:06:37;;;;;;;7.97;2.57;;;13.50;46.00;;;;;;4957602;28;20027;-81
2021/04/01 08:09:08;;;;;;;7.37;2.53;;;13.70;45.50;;;;;;4970824;28;20134;-82
2021/04/01 08:11:58;;;;;;;7.97;2.47;;;13.70;45.20;;;;;;4980702;28;20026;-81
2021/04/01 08:14:34;;;;;;;11.93;2.70;;;13.90;45.40;;;;;;4956246;28;20035;-82
2021/04/01 08:17:14;;;;;;;8.57;2.70;;;14.10;45.20;;;;;;4971818;28;20039;-82
2021/04/01 08:19:40;;;;;;;8.10;2.10;;;14.20;45.10;;;;;;4964437;28;20057;-82
2021/04/01 08:22:16;;;;;;;10.37;2.77;;;14.40;45.00;;;;;;4970505;28;20055;-82
2021/04/01 08:24:51;;;;;;;12.23;2.33;;;14.40;44.50;;;;;;4970642;28;20137;-82
2021/04/01 08:35:33;;;;;;;10.37;2.80;;;15.10;44.00;;;;;;4963235;28;20031;-82
2021/04/01 08:40:35;;;;;;;21.17;2.70;;;15.50;43.30;;;;;;4962577;28;20023;-82
2021/04/01 08:46:30;;;;;;;12.13;3.07;;;15.80;42.40;;;;;;4950701;28;20046;-82
2021/04/01 08:49:19;;;;;;;7.32;2.20;;;16.00;42.20;;;;;;4960797;28;20043;-82
2021/04/01 08:52:03;;;;;;;5.10;2.17;;;16.20;42.20;;;;;;4966685;28;20035;-81
2021/04/01 08:54:41;;;;;;;11.67;2.53;;;16.40;41.50;;;;;;4966880;28;20035;-82
2021/04/01 08:57:46;;;;;;;8.07;2.30;;;16.50;40.80;;;;;;4955762;28;20487;-81
2021/04/01 09:00:14;;;;;;;4.03;1.88;;;16.50;40.30;;;;;;4962448;28;20035;-83
2021/04/01 09:02:50;;;;;;;7.70;2.35;;;16.60;40.20;;;;;;4968661;28;20031;-83
2021/04/01 09:05:17;;;;;;;9.02;2.22;;;16.70;39.90;;;;;;4979205;28;20483;-83
2021/04/01 09:07:47;;;;;;;7.97;1.98;;;16.80;39.60;;;;;;4971966;28;20066;-84
2021/04/01 09:10:28;;;;;;;7.90;2.25;;;17.00;39.00;;;;;;4960461;28;20027;-84
2021/04/01 09:17:50;;;;;;;8.18;2.15;;;17.20;38.50;;;;;;4963741;28;20026;-84
2021/04/01 09:20:22;;;;;;;7.57;1.83;;;17.30;38.20;;;;;;4996944;28;20533;-84
2021/04/01 09:22:58;;;;;;;8.23;1.80;;;17.50;38.10;;;;;;4975296;28;20086;-83
2021/04/01 09:25:39;;;;;;;4.72;1.88;;;17.60;37.90;;;;;;4974375;28;20097;-83
2021/04/01 09:28:07;;;;;;;6.55;1.88;;;17.80;37.30;;;;;;4975500;28;20027;-83
2021/04/01 09:30:34;;;;;;;6.30;1.95;;;17.90;37.00;;;;;;4973204;28;20039;-83
2021/04/01 09:33:06;;;;;;;8.50;2.35;;;18.00;36.90;;;;;;4988384;28;20110;-83
2021/04/01 09:35:39;;;;;;;11.30;2.13;;;18.10;36.80;;;;;;4971767;28;20118;-83
2021/04/01 09:38:09;;;;;;;;;;;18.30;36.60;;;;;;4973044;28;20460;-83
2021/04/01 09:40:41;;;;;;;10.90;1.98;;;18.50;36.80;;;;;;4966594;28;19918;-84
2021/04/01 09:43:15;;;;;;;9.45;1.80;;;18.70;36.20;;;;;;4974429;28;20534;-84
2021/04/01 09:45:41;;;;;;;9.45;1.70;;;18.80;35.60;;;;;;4975395;28;20038;-83
2021/04/01 09:48:08;;;;;;;4.72;1.58;;;18.90;35.50;;;;;;4975645;28;20030;-83
2021/04/01 09:50:36;;;;;;;8.57;1.88;;;18.90;35.00;;;;;;4973878;28;20031;-83
2021/04/01 09:53:12;;;;;;;7.55;2.30;;;18.90;35.00;;;;;;4974174;28;20035;-83
2021/04/01 09:55:40;;;;;;;16.52;2.00;;;19.10;35.10;;;;;;4971051;28;20073;-83
2021/04/01 09:58:16;;;;;;;7.32;2.38;;;19.20;34.90;;;;;;4973493;28;20033;-83
2021/04/01 10:03:37;;;;;;;9.13;1.65;;;19.20;33.80;;;;;;4966970;28;20054;-83
2021/04/01 10:06:03;;;;;;;7.07;2.00;;;19.40;33.40;;;;;;4991134;28;20467;-83
2021/04/01 10:08:36;;;;;;;6.97;1.70;;;19.50;33.60;;;;;;4963381;28;20416;-83
2021/04/01 10:11:17;;;;;;;6.30;2.03;;;19.60;33.70;;;;;;4964392;28;20070;-83
2021/04/01 10:13:43;;;;;;;12.55;1.98;;;19.80;33.80;;;;;;4963835;28;20050;-82
2021/04/01 10:16:27;;;;;;;11.60;2.08;;;19.90;33.70;;;;;;4970898;28;20058;-83
2021/04/01 10:18:55;;;;;;;4.95;1.90;;;20.00;33.50;;;;;;4964932;28;20412;-84
2021/04/01 10:21:20;;;;;;;8.05;2.00;;;20.00;33.30;;;;;;4971743;28;20037;-83
2021/04/01 10:23:54;;;;;;;6.47;1.75;;;20.10;33.10;;;;;;4966478;28;20034;-83
2021/04/01 10:26:30;;;;;;;12.85;1.98;;;20.20;32.70;;;;;;4985910;28;20035;-83
2021/04/01 10:29:07;;;;;;;8.48;1.88;;;20.30;33.00;;;;;;4966428;28;20710;-83
2021/04/01 10:31:52;;;;;;;8.55;1.75;;;20.50;32.60;;;;;;4972220;28;20019;-83
2021/04/01 10:34:21;;;;;;;7.25;1.60;;;20.50;31.60;;;;;;4971623;28;20023;-83
2021/04/01 10:36:49;;;;;;;4.05;1.90;;;20.50;32.00;;;;;;4973568;28;20034;-83
2021/04/01 10:39:17;;;;;;;13.95;2.05;;;20.60;31.30;;;;;;4972681;28;20138;-83
2021/04/01 10:41:54;;;;;;;8.95;1.63;;;20.70;31.20;;;;;;4973967;28;20479;-83
2021/04/01 10:44:22;;;;;;;11.50;1.48;;;20.80;30.60;;;;;;4968576;28;20049;-83
2021/04/01 10:46:59;;;;;;;3.40;1.48;;;20.90;30.30;;;;;;4964459;28;20383;-83
2021/04/01 10:49:36;;;;;;;10.55;1.55;;;20.90;30.00;;;;;;4973185;28;20019;-83
2021/04/01 10:52:13;;;;;;;4.68;1.50;;;21.10;29.80;;;;;;4971763;28;20550;-83
2021/04/01 10:54:45;;;;;;;6.38;1.60;;;21.10;29.40;;;;;;4957807;28;20027;-82
2021/04/01 10:57:27;;;;;;;3.78;1.30;;;21.20;29.40;;;;;;4963570;28;20714;-83
2021/04/01 10:59:53;;;;;;;5.07;1.55;;;21.30;29.50;;;;;;4987986;28;20117;-83
2021/04/01 11:02:20;;;;;;;8.82;1.45;;;21.40;29.50;;;;;;4977074;28;20039;-83
2021/04/01 11:05:08;;;;;;;7.55;1.60;;;21.50;29.00;;;;;;4971746;28;20029;-83
2021/04/01 11:07:43;;;;;;;6.38;1.80;;;21.50;28.60;;;;;;4971010;28;20133;-84
2021/04/01 11:10:11;;;;;;;8.27;1.70;;;21.60;28.50;;;;;;4968193;28;20569;-84
2021/04/01 11:12:38;;;;;;;7.38;1.30;;;21.70;28.40;;;;;;4960346;28;20030;-83
2021/04/01 11:15:07;;;;;;;10.43;1.67;;;21.80;28.40;;;;;;4966097;28;20063;-83
2021/04/01 11:17:39;;;;;;;9.00;1.77;;;21.90;28.30;;;;;;4970040;28;20097;-83
2021/04/01 11:20:06;;;;;;;6.20;1.50;;;22.00;27.70;;;;;;4971862;28;20037;-83
2021/04/01 11:22:32;;;;;;;8.77;1.55;;;22.00;27.50;;;;;;4966518;28;20034;-82
2021/04/01 11:25:10;;;;;;;8.98;2.13;;;22.10;27.40;;;;;;4972122;28;20142;-82
2021/04/01 11:27:37;;;;;;;5.60;1.60;;;22.30;27.40;;;;;;4968205;28;20035;-83
2021/04/01 11:30:04;;;;;;;8.10;1.55;;;22.30;27.40;;;;;;4967960;28;20546;-82
2021/04/01 11:32:31;;;;;;;7.45;1.65;;;22.40;27.40;;;;;;4966881;28;20101;-83
2021/04/01 11:35:03;;;;;;;7.60;2.60;;;22.50;27.60;;;;;;4962964;28;20434;-83
2021/04/01 11:37:34;;;;;;;8.32;1.48;;;22.70;27.40;;;;;;4970410;28;20073;-83
2021/04/01 11:40:07;;;;;;;8.45;1.88;;;22.80;27.60;;;;;;4973118;28;20030;-82
2021/04/01 11:42:34;;;;;;;12.88;1.70;;;22.80;27.30;;;;;;4985528;28;20386;-82
2021/04/01 11:45:03;;;;;;;6.68;1.90;;;22.80;27.10;;;;;;4969726;28;20035;-83
2021/04/01 11:47:35;;;;;;;7.63;1.83;;;22.90;27.70;;;;;;4969679;28;20141;-84
2021/04/01 11:50:05;;;;;;;5.13;1.80;;;23.00;27.50;;;;;;4964418;28;20511;-83
2021/04/01 11:52:31;;;;;;;6.50;1.75;;;23.10;28.00;;;;;;4962327;28;20038;-83
2021/04/01 11:55:07;;;;;;;9.40;1.63;;;23.30;28.20;;;;;;4957615;28;20097;-83
2021/04/01 11:57:33;;;;;;;6.30;1.75;;;23.40;28.00;;;;;;4968154;28;20027;-83
2021/04/01 12:00:07;;;;;;;5.15;1.48;;;23.50;27.90;;;;;;4955337;28;20031;-82
2021/04/01 12:03:09;;;;;;;8.13;1.95;;;23.50;27.70;;;;;;4959215;28;20030;-83
2021/04/01 12:05:46;;;;;;;8.32;1.58;;;23.60;27.10;;;;;;4970673;28;20034;-83
2021/04/01 12:08:42;;;;;;;13.30;2.28;;;23.60;27.00;;;;;;4943732;28;687445;-83
2021/04/01 12:11:08;;;;;;;7.70;2.30;;;23.60;27.00;;;;;;4966275;28;20543;-83
2021/04/01 12:13:34;;;;;;;6.90;2.17;;;23.60;26.90;;;;;;4956251;28;20031;-83
2021/04/01 12:16:00;;;;;;;7.68;2.15;;;23.60;27.30;;;;;;4956255;28;20023;-83
2021/04/01 12:18:38;;;;;;;5.00;1.92;;;23.80;26.60;;;;;;4968620;28;20213;-84
2021/04/01 12:21:04;;;;;;;6.40;1.83;;;23.80;27.00;;;;;;4964781;28;20078;-83
2021/04/01 12:23:51;;;;;;;9.05;2.03;;;24.00;26.90;;;;;;4967799;28;20090;-81
2021/04/01 12:26:17;;;;;;;3.90;1.80;;;24.00;26.90;;;;;;4958939;28;20034;-82
2021/04/01 12:28:53;;;;;;;7.13;1.60;;;24.10;26.70;;;;;;4970534;28;20391;-81
2021/04/01 12:31:31;;;;;;;8.32;1.98;;;24.20;26.50;;;;;;4969306;28;20031;-81
2021/04/01 12:33:57;;;;;;;7.00;2.30;;;24.20;26.50;;;;;;4970567;28;20038;-81
2021/04/01 12:36:36;;;;;;;8.38;2.45;;;24.10;26.30;;;;;;4973022;28;20034;-81
2021/04/01 12:39:05;;;;;;;6.75;1.80;;;24.10;26.10;;;;;;4982471;28;20393;-81
2021/04/01 12:41:32;;;;;;;9.05;1.88;;;24.00;26.50;;;;;;4985782;28;20117;-81
2021/04/01 12:43:58;;;;;;;6.85;1.80;;;23.90;26.80;;;;;;4964718;28;20035;-81
2021/04/01 12:46:35;;;;;;;9.50;2.10;;;23.90;27.10;;;;;;4958340;28;20031;-82
2021/04/01 12:49:01;;;;;;;4.38;1.80;;;23.90;27.10;;;;;;4975120;28;20038;-81
2021/04/01 12:51:27;;;;;;;7.32;2.28;;;23.90;27.00;;;;;;4968926;28;20035;-81
2021/04/01 12:54:05;;;;;;;5.95;2.50;;;24.00;27.40;;;;;;4965419;28;20034;-81
2021/04/01 12:56:43;;;;;;;5.55;2.30;;;24.30;26.90;;;;;;4972114;28;20018;-81
2021/04/01 12:59:13;;;;;;;9.07;2.25;;;24.30;26.40;;;;;;4975257;28;20023;-81
2021/04/01 13:01:44;;;;;;;6.05;1.95;;;24.30;26.40;;;;;;4976645;28;20023;-81
2021/04/01 13:04:12;;;;;;;6.25;2.00;;;24.40;26.50;;;;;;4975617;28;20031;-81
2021/04/01 13:11:52;;;;;;;6.07;2.17;;;24.50;26.70;;;;;;4975403;28;20690;-81
2021/04/01 13:14:20;;;;;;;8.02;2.17;;;24.60;26.60;;;;;;4974166;28;20035;-81
2021/04/01 13:16:45;;;;;;;11.77;2.00;;;24.70;26.60;;;;;;4966770;28;20034;-81
2021/04/01 13:19:11;;;;;;;6.13;2.00;;;24.60;26.40;;;;;;4971584;28;20043;-81
2021/04/01 13:26:56;;;;;;;8.38;1.98;;;24.50;26.30;;;;;;4960482;28;20390;-81
2021/04/01 13:29:25;;;;;;;12.88;2.15;;;24.50;26.60;;;;;;4958241;28;20034;-82
2021/04/01 13:32:15;;;;;;;7.63;1.77;;;24.50;26.50;;;;;;4964476;28;20031;-82
2021/04/01 13:34:51;;;;;;;9.63;2.35;;;24.40;26.50;;;;;;4972379;28;20042;-82
2021/04/01 13:37:26;;;;;;;10.00;2.55;;;24.30;26.70;;;;;;4962843;28;20054;-82
2021/04/01 13:39:59;;;;;;;12.15;2.17;;;24.20;26.60;;;;;;4984949;28;20027;-82
2021/04/01 13:42:28;;;;;;;10.05;2.20;;;24.20;26.80;;;;;;4969383;28;20036;-82
2021/04/01 13:44:59;;;;;;;10.50;2.53;;;24.30;26.50;;;;;;4988196;28;20028;-82
2021/04/01 13:47:25;;;;;;;5.85;2.40;;;24.50;26.60;;;;;;4967438;28;20023;-82
2021/04/01 13:49:54;;;;;;;10.85;2.33;;;24.60;26.70;;;;;;4969063;28;20510;-82
2021/04/01 13:55:37;;;;;;;7.47;1.65;;;24.40;26.50;;;;;;4959956;28;20051;-82
2021/04/01 14:09:21;;;;;;;6.68;2.08;;;24.00;27.50;;;;;;4964087;28;20086;-84
2021/04/01 14:11:49;;;;;;;6.95;2.30;;;24.00;27.50;;;;;;4966260;28;20146;-82
2021/04/01 14:14:14;;;;;;;5.97;2.40;;;24.00;27.60;;;;;;4977180;28;20035;-82
2021/04/01 14:16:43;;;;;;;4.35;1.90;;;24.00;27.80;;;;;;4972464;28;20026;-84
2021/04/01 14:19:10;;;;;;;7.00;2.15;;;23.90;28.00;;;;;;4972314;28;20105;-83
2021/04/01 14:21:36;;;;;;;7.72;2.00;;;23.80;27.80;;;;;;4964776;28;20023;-82
2021/04/01 14:24:08;;;;;;;11.02;1.90;;;23.70;27.90;;;;;;4973388;28;20114;-83
2021/04/01 14:26:41;;;;;;;;;;;23.80;28.30;;;;;;4982107;28;20048;-83
2021/04/01 14:29:06;;;;;;;8.05;2.13;;;23.70;28.30;;;;;;4962756;28;19914;-83
2021/04/01 14:31:36;;;;;;;10.98;2.30;;;23.70;28.30;;;;;;4967094;28;20061;-84
2021/04/01 14:34:02;;;;;;;6.47;1.90;;;23.60;28.00;;;;;;4985757;28;20042;-83
2021/04/01 14:36:29;;;;;;;7.25;1.95;;;23.60;28.60;;;;;;4964214;28;20379;-83
2021/04/01 14:38:55;;;;;;;9.60;2.65;;;23.60;28.40;;;;;;4969080;28;20034;-83
2021/04/01 14:44:20;;;;;;;7.43;1.90;;;23.60;28.90;;;;;;4968318;28;20042;-83
2021/04/01 14:46:46;;;;;;;7.15;1.70;;;23.60;29.00;;;;;;4968094;28;20027;-83
2021/04/01 14:49:13;;;;;;;5.13;1.77;;;23.60;29.00;;;;;;4986550;28;20035;-83
2021/04/01 14:51:40;;;;;;;7.05;1.55;;;23.60;29.00;;;;;;4967422;28;20105;-82
2021/04/01 14:54:08;;;;;;;11.57;2.08;;;23.60;29.40;;;;;;4969659;28;20518;-82
2021/04/01 14:56:36;;;;;;;5.28;2.28;;;23.60;29.30;;;;;;4970193;28;20047;-83
2021/04/01 14:59:10;;;;;;;9.10;2.20;;;23.60;29.00;;;;;;4982710;28;20027;-83
2021/04/01 15:01:36;;;;;;;7.85;2.00;;;23.50;29.00;;;;;;4968512;28;20039;-83
2021/04/01 15:04:03;;;;;;;5.57;1.80;;;23.50;29.20;;;;;;4973676;28;20039;-83
2021/04/01 15:06:31;;;;;;;8.70;2.58;;;23.60;29.10;;;;;;4967930;28;20404;-83
2021/04/01 15:09:00;;;;;;;5.13;2.20;;;23.70;28.90;;;;;;4971413;28;20039;-83
2021/04/01 15:11:26;;;;;;;12.15;2.15;;;23.80;28.90;;;;;;4972808;28;20027;-84
2021/04/01 15:13:52;;;;;;;10.25;2.20;;;23.80;29.10;;;;;;4989658;28;20027;-82
2021/04/01 15:16:20;;;;;;;5.28;1.88;;;23.80;29.00;;;;;;4969964;28;20114;-82
2021/04/01 15:18:50;;;;;;;5.85;2.03;;;23.70;29.10;;;;;;4963954;28;20415;-82
2021/04/01 15:21:17;;;;;;;6.22;1.73;;;23.70;29.10;;;;;;4966792;28;20038;-83
2021/04/01 15:23:43;;;;;;;9.60;1.85;;;23.60;29.20;;;;;;4969763;28;20034;-83